Roosevelt, Washington
Current Conditions -  °F | °C
As of 10:53 PM on Sunday 23 Nov 2014 (Local Time) from KHRI Reporting Station
Clear Clear  
Wind Chill:   Ceiling: Unl
Heat Index:   Visibility: 10mi
Dew Point:   Wind: 12mph
Humidity: 71%   Direction: 240°WSW
Pressure: 30.28"   Gusts: NA
Location:  45.74°N, 120.21°W
Report Text: KHRI 240653Z AUTO 24010KT 10SM CLR 08/03 A3028 RMK AO2 SLP253 T00780028
Loading
Personal Weather Stations






























Interactive Weather Map New forecast layout! Learn more

10-Day Weather Forecast

Advertisements
Track Severe Weather on mobile